createdAt,value
2018-06-11T07:27:10.630Z,41.6
2018-06-11T07:28:00.591Z,41.8
2018-06-11T07:28:50.631Z,41.9
2018-06-11T07:29:40.696Z,42
2018-06-11T07:30:30.503Z,42.1
2018-06-11T07:31:20.992Z,42.3
2018-06-11T07:32:10.623Z,42.4
2018-06-11T07:33:00.949Z,42.5
2018-06-11T07:33:51.015Z,42.7
2018-06-11T07:34:41.108Z,42.8
2018-06-11T07:35:31.150Z,42.9
2018-06-11T07:36:21.222Z,43
2018-06-11T07:37:11.302Z,43.2
2018-06-11T07:38:01.344Z,43.3
2018-06-11T07:38:51.395Z,43.4
2018-06-11T07:39:41.466Z,43.6
2018-06-11T07:40:31.248Z,43.7
2018-06-11T07:41:21.324Z,43.8
2018-06-11T07:42:11.663Z,43.9
2018-06-11T07:43:01.458Z,44.1
2018-06-11T07:43:51.812Z,44.2
2018-06-11T07:44:41.855Z,44.3
2018-06-11T07:45:31.944Z,44.4
2018-06-11T07:46:21.980Z,44.6
2018-06-11T07:47:12.047Z,44.7
2018-06-11T07:48:01.934Z,44.9
2018-06-11T07:48:51.909Z,45
2018-06-11T07:49:42.244Z,45.1
2018-06-11T07:50:32.309Z,45.3
2018-06-11T07:51:22.369Z,45.4
2018-06-11T07:52:12.157Z,45.5
2018-06-11T07:53:02.284Z,45.6
2018-06-11T07:53:52.586Z,45.8
2018-06-11T07:54:42.349Z,45.9
2018-06-11T07:55:32.727Z,46
2018-06-11T07:56:22.775Z,46.1
2018-06-11T07:57:12.843Z,46.3
2018-06-11T07:58:02.606Z,46.4
2018-06-11T07:58:52.946Z,46.5
2018-06-11T07:59:43.019Z,46.6
2018-06-11T08:00:33.087Z,46.8
2018-06-11T08:01:23.326Z,46.9
2018-06-11T08:02:12.943Z,47.1
2018-06-11T08:03:03.301Z,47.2
2018-06-11T08:03:53.361Z,47.3
2018-06-11T08:04:43.413Z,47.4
2018-06-11T08:05:33.462Z,47.6
2018-06-11T08:06:23.528Z,47.7
2018-06-11T08:07:13.316Z,47.8
2018-06-11T08:08:03.686Z,47.9
2018-06-11T08:08:53.739Z,48.1
2018-06-11T08:09:43.528Z,48.2
2018-06-11T08:10:33.850Z,48.3
2018-06-11T08:11:23.917Z,48.4
2018-06-11T08:12:13.984Z,48.5
2018-06-11T08:13:04.048Z,48.6
2018-06-11T08:13:53.865Z,48.8
2018-06-11T08:14:44.174Z,48.9
2018-06-11T08:15:33.963Z,49
2018-06-11T08:16:24.320Z,49.1
2018-06-11T08:17:14.378Z,49.3
2018-06-11T08:18:04.167Z,49.3
2018-06-11T08:18:54.516Z,49.5
2018-06-11T08:19:44.587Z,49.6
2018-06-11T08:20:34.379Z,49.8
2018-06-11T08:21:24.705Z,49.8
2018-06-11T08:22:14.760Z,49.9
2018-06-11T08:23:04.831Z,50.1
2018-06-11T08:23:54.892Z,50.1
2018-06-11T08:24:44.672Z,50.3
2018-06-11T08:25:35.031Z,50.4
2018-06-11T08:26:25.132Z,50.5
2018-06-11T08:27:14.891Z,50.6
2018-06-11T08:28:05.230Z,50.7
2018-06-11T08:28:55.299Z,50.8
2018-06-11T08:29:45.374Z,50.9
2018-06-11T08:30:35.406Z,51
2018-06-11T08:31:25.478Z,51.1
2018-06-11T08:32:15.296Z,51.3
2018-06-11T08:33:05.598Z,51.4
2018-06-11T08:33:55.383Z,51.4
2018-06-11T08:34:45.747Z,51.5
2018-06-11T08:35:35.803Z,51.6
2018-06-11T08:36:25.579Z,51.8
2018-06-11T08:37:15.965Z,51.8
2018-06-11T08:38:56.067Z,52.1
2018-06-11T08:39:45.838Z,52.1
2018-06-11T08:40:36.204Z,52.3
2018-06-11T08:41:25.965Z,52.3
2018-06-11T08:43:05.826Z,52.5
2018-06-11T08:43:56.189Z,52.6
2018-06-11T08:44:46.545Z,52.7
2018-06-11T08:45:36.597Z,52.8
2018-06-11T08:46:26.376Z,52.9
2018-06-11T08:47:16.721Z,52.9
2018-06-11T08:48:06.776Z,53.1
2018-06-11T08:48:56.277Z,53.1
2018-06-11T08:49:46.913Z,53.1
2018-06-11T08:50:36.994Z,53.3
2018-06-11T08:51:27.038Z,53.3
2018-06-11T08:52:17.100Z,53.4
2018-06-11T08:53:07.200Z,53.5
2018-06-11T08:53:56.962Z,53.6
2018-06-11T08:54:46.739Z,53.6
2018-06-11T08:55:37.374Z,53.7
2018-06-11T08:56:27.434Z,53.8
2018-06-11T08:57:17.485Z,53.9
2018-06-11T08:58:06.986Z,54
2018-06-11T08:58:57.623Z,54.1
2018-06-11T08:59:47.838Z,54.1
2018-06-11T09:00:37.465Z,54.2
2018-06-11T09:01:27.544Z,54.3
2018-06-11T09:02:17.606Z,54.4
2018-06-11T09:03:07.997Z,54.5
2018-06-11T09:03:58.007Z,54.6
2018-06-11T09:04:48.074Z,54.6
2018-06-11T09:05:37.848Z,54.6
2018-06-11T09:06:28.215Z,54.8
2018-06-11T09:07:17.997Z,54.8
2018-06-11T09:08:08.347Z,54.9
2018-06-11T09:08:58.394Z,55
2018-06-11T09:09:48.175Z,55.1
2018-06-11T09:10:38.521Z,55.1
2018-06-11T09:11:28.604Z,55.2
2018-06-11T09:12:18.657Z,55.3
2018-06-11T09:13:08.746Z,55.3
2018-06-11T09:13:58.787Z,55.4
2018-06-11T09:14:48.857Z,55.4
2018-06-11T09:15:38.651Z,55.5
2018-06-11T09:16:28.986Z,55.6
2018-06-11T09:17:19.044Z,55.7
2018-06-11T09:18:09.636Z,55.8
2018-06-11T09:18:58.892Z,55.9
2018-06-11T09:19:49.260Z,55.9
2018-06-11T09:20:39.321Z,56.1
2018-06-11T09:21:29.367Z,56.1
2018-06-11T09:22:19.449Z,56.2
2018-06-11T09:23:09.521Z,56.3
2018-06-11T09:23:59.297Z,56.3
2018-06-11T09:24:49.631Z,56.4
2018-06-11T09:25:39.758Z,56.5
2018-06-11T09:26:29.790Z,56.6
2018-06-11T09:27:19.546Z,56.6
2018-06-11T09:28:09.899Z,56.6
2018-06-11T09:28:59.939Z,56.8
2018-06-11T09:29:50.070Z,56.8
2018-06-11T09:30:39.800Z,56.9
2018-06-11T09:31:29.881Z,57
2018-06-11T09:32:20.222Z,57.1
2018-06-11T09:33:10.283Z,57.1
2018-06-11T09:34:00.078Z,57.2
2018-06-11T09:34:50.423Z,57.3
2018-06-11T09:35:40.468Z,57.3
2018-06-11T09:36:30.537Z,57.4
2018-06-11T09:37:20.607Z,57.4
2018-06-11T09:38:10.800Z,57.6
2018-06-11T09:39:00.454Z,57.7
2018-06-11T09:39:50.515Z,57.7
2018-06-11T09:41:30.919Z,57.8
2018-06-11T09:42:21.029Z,57.8
2018-06-11T09:43:10.493Z,57.9
2018-06-11T09:44:01.404Z,58.1
2018-06-11T09:44:51.230Z,58.1
2018-06-11T09:45:40.978Z,58.1
2018-06-11T09:46:31.319Z,58.3
2018-06-11T09:47:21.104Z,58.3
2018-06-11T09:48:11.459Z,58.4
2018-06-11T09:49:01.230Z,58.4
2018-06-11T09:50:41.642Z,58.6
2018-06-11T09:51:31.737Z,58.6
2018-06-11T09:52:21.785Z,58.8
2018-06-11T09:53:11.577Z,58.8
2018-06-11T09:54:01.343Z,58.9
2018-06-11T09:54:51.963Z,58.9
2018-06-11T09:55:41.952Z,59
2018-06-11T09:56:32.112Z,59.1
2018-06-11T09:57:22.157Z,59.1
2018-06-11T09:58:12.226Z,59.2
2018-06-11T09:59:02.027Z,59.3
2018-06-11T09:59:52.076Z,59.4
2018-06-11T10:00:42.415Z,59.4
2018-06-11T10:01:32.497Z,59.4
2018-06-11T10:02:22.537Z,59.5
2018-06-11T10:03:12.351Z,59.6
2018-06-11T10:04:02.679Z,59.7
2018-06-11T10:04:52.740Z,59.8
2018-06-11T10:05:42.801Z,59.8
2018-06-11T10:06:32.881Z,59.9
2018-06-11T10:07:22.938Z,59.9
2018-06-11T10:08:12.455Z,60
2018-06-11T10:09:03.159Z,60.1
2018-06-11T10:09:53.126Z,60.2
2018-06-11T10:10:43.192Z,60.2
2018-06-11T10:11:33.266Z,60.3
2018-06-11T10:12:23.639Z,60.4
2018-06-11T10:13:13.384Z,60.4
2018-06-11T10:14:03.176Z,60.5
2018-06-11T10:14:52.976Z,60.6
2018-06-11T10:15:43.584Z,60.6
2018-06-11T10:16:33.668Z,60.7
2018-06-11T10:17:23.451Z,60.8
2018-06-11T10:18:13.500Z,60.8
2018-06-11T10:19:03.996Z,60.8
2018-06-11T10:19:53.934Z,60.9
2018-06-11T10:20:43.967Z,60.9
2018-06-11T10:21:34.052Z,61.1
2018-06-11T10:22:24.108Z,61.1
2018-06-11T10:23:13.890Z,61.2
2018-06-11T10:24:04.244Z,61.2
2018-06-11T10:24:54.583Z,61.3
2018-06-11T10:25:44.357Z,61.3
2018-06-11T10:26:34.435Z,61.3
2018-06-11T10:27:24.493Z,61.4
2018-06-11T10:28:14.555Z,61.4
2018-06-11T10:29:04.351Z,61.5
2018-06-11T10:29:54.706Z,61.5
2018-06-11T10:30:44.569Z,61.6
2018-06-11T10:31:34.817Z,61.7
2018-06-11T10:32:24.727Z,61.8
2018-06-11T10:33:14.951Z,61.8
2018-06-11T10:34:05.037Z,61.9
2018-06-11T10:34:55.082Z,61.9
2018-06-11T10:35:45.142Z,62
2018-06-11T10:36:35.257Z,62.1
2018-06-11T10:37:25.050Z,62.1
2018-06-11T10:38:15.053Z,62.3
2018-06-11T10:39:04.893Z,62.3
2018-06-11T10:39:55.191Z,62.4
2018-06-11T10:40:45.546Z,62.4
2018-06-11T10:41:35.310Z,62.5
2018-06-11T10:42:25.656Z,62.6
2018-06-11T10:43:15.444Z,62.6
2018-06-11T10:44:05.503Z,62.6
2018-06-11T10:44:55.583Z,62.7
2018-06-11T10:45:45.938Z,62.8
2018-06-11T10:46:35.985Z,62.8
2018-06-11T10:47:26.053Z,62.9
2018-06-11T10:48:15.562Z,62.9
2018-06-11T10:49:06.198Z,63
2018-06-11T10:49:56.266Z,63.1
2018-06-11T10:50:46.043Z,63.1
2018-06-11T10:51:36.373Z,63.1
2018-06-11T10:52:26.447Z,63.2
2018-06-11T10:53:16.221Z,63.3
2018-06-11T10:54:06.568Z,63.3
2018-06-11T10:54:56.385Z,63.4
2018-06-11T10:55:46.710Z,63.4
2018-06-11T10:56:36.484Z,63.4
2018-06-11T10:57:26.268Z,63.5
2018-06-11T10:58:16.638Z,63.6
2018-06-11T10:59:06.701Z,63.6
2018-06-11T10:59:56.751Z,63.7
2018-06-11T11:00:47.095Z,63.8
2018-06-11T11:01:36.889Z,63.8
2018-06-11T11:02:26.933Z,63.8
2018-06-11T11:03:17.296Z,63.7
2018-06-11T11:04:07.353Z,63.5
2018-06-11T11:04:57.429Z,63.4
2018-06-11T11:05:47.499Z,63.6
2018-06-11T11:06:37.565Z,63.8
2018-06-11T11:07:27.648Z,63.9
2018-06-11T11:08:17.663Z,64
2018-06-11T11:09:07.743Z,64.1
2018-06-11T11:09:57.801Z,64.1
2018-06-11T11:10:47.906Z,64.2
2018-06-11T11:11:37.921Z,64.3
2018-06-11T11:12:27.785Z,64.3
2018-06-11T11:13:18.071Z,64.3
2018-06-11T11:14:08.141Z,64.4
2018-06-11T11:14:58.204Z,64.4
2018-06-11T11:15:48.257Z,64.6
2018-06-11T11:16:38.336Z,64.6
2018-06-11T11:17:28.122Z,64.6
2018-06-11T11:18:18.185Z,64.6
2018-06-11T11:19:08.520Z,64.7
2018-06-11T11:19:58.022Z,64.8
2018-06-11T11:20:48.398Z,64.8
2018-06-11T11:21:38.700Z,64.8
2018-06-11T11:22:28.775Z,64.9
2018-06-11T11:23:18.841Z,64.9
2018-06-11T11:24:08.903Z,64.9
2018-06-11T11:24:59.015Z,65
2018-06-11T11:25:48.763Z,65.1
2018-06-11T11:26:39.093Z,65.1
2018-06-11T11:27:29.177Z,65.2
2018-06-11T11:28:19.224Z,65.2
2018-06-11T11:29:09.028Z,65.3
2018-06-11T11:29:59.356Z,65.3
2018-06-11T11:30:49.437Z,65.3
2018-06-11T11:31:39.521Z,65.4
2018-06-11T11:32:29.274Z,65.4
2018-06-11T11:33:19.614Z,65.4
2018-06-11T11:34:09.403Z,65.5
2018-06-11T11:34:59.749Z,65.6
2018-06-11T11:35:49.812Z,65.6
2018-06-11T11:36:39.872Z,65.6
2018-06-11T11:37:29.956Z,65.7
2018-06-11T11:38:19.468Z,65.7
2018-06-11T11:39:10.078Z,65.8
2018-06-11T11:40:00.162Z,65.8
2018-06-11T11:40:50.197Z,65.8
2018-06-11T11:41:40.268Z,65.9
2018-06-11T11:42:30.324Z,65.9
2018-06-11T11:43:20.115Z,65.9
2018-06-11T11:44:10.495Z,66
2018-06-11T11:45:00.259Z,66
2018-06-11T11:45:50.320Z,66
2018-06-11T11:46:40.371Z,66.1
2018-06-11T11:47:30.457Z,66.1
2018-06-11T11:48:20.514Z,66.1
2018-06-11T11:49:10.859Z,66.2
2018-06-11T11:50:00.909Z,66.2
2018-06-11T11:50:51.002Z,66.3
2018-06-11T11:51:41.075Z,66.3
2018-06-11T11:52:31.112Z,66.3
2018-06-11T11:53:21.178Z,66.4
2018-06-11T11:54:11.243Z,66.4
2018-06-11T11:55:01.035Z,66.4
2018-06-11T11:55:51.415Z,66.4
2018-06-11T11:56:41.442Z,66.4
2018-06-11T11:57:31.720Z,66.5
2018-06-11T11:58:21.608Z,66.5
2018-06-11T11:59:11.664Z,66.6
2018-06-11T12:00:01.702Z,66.6
2018-06-11T12:00:51.481Z,66.6
2018-06-11T12:01:41.970Z,66.7
2018-06-11T12:02:31.932Z,66.7
2018-06-11T12:03:21.977Z,66.7
2018-06-11T12:04:12.069Z,66.8
2018-06-11T12:05:02.093Z,66.8
2018-06-11T12:05:51.891Z,66.8
2018-06-11T12:06:42.214Z,66.9
2018-06-11T12:07:32.443Z,66.9
2018-06-11T12:08:22.414Z,67
2018-06-11T12:09:12.422Z,66.9
2018-06-11T12:10:02.235Z,66.9
2018-06-11T12:10:52.597Z,67
2018-06-11T12:11:42.623Z,67.1
2018-06-11T12:12:32.670Z,67
2018-06-11T12:13:22.745Z,66.8
2018-06-11T12:14:12.809Z,66.4
2018-06-11T12:15:02.871Z,66.3
2018-06-11T12:15:52.662Z,66.4
2018-06-11T12:16:42.997Z,66.7
2018-06-11T12:17:33.063Z,66.9
2018-06-11T12:18:23.180Z,66.9
2018-06-11T12:19:13.204Z,66.9
2018-06-11T12:20:02.972Z,66.9
2018-06-11T12:20:53.333Z,66.9
2018-06-11T12:21:43.392Z,66.9
2018-06-11T12:22:33.453Z,66.9
2018-06-11T12:23:23.513Z,67
2018-06-11T12:24:13.584Z,67
2018-06-11T12:25:03.829Z,67.1
2018-06-11T12:25:53.712Z,67.1
2018-06-11T12:26:43.521Z,67.1
2018-06-11T12:27:33.840Z,67.1
2018-06-11T12:28:23.904Z,67.1
2018-06-11T12:29:13.717Z,67.1
2018-06-11T12:30:04.035Z,67.2
2018-06-11T12:30:53.832Z,67.2
2018-06-11T12:31:43.889Z,67.2
2018-06-11T12:32:34.231Z,67.2
2018-06-11T12:33:24.299Z,67.3
2018-06-11T12:34:14.355Z,67.3
2018-06-11T12:35:04.422Z,67.3
2018-06-11T12:35:54.216Z,67.3
2018-06-11T12:36:44.272Z,67.3
2018-06-11T12:37:34.621Z,67.3
2018-06-11T12:38:24.754Z,67.3
2018-06-11T12:39:14.766Z,67.3
2018-06-11T12:40:04.830Z,67.3
2018-06-11T12:40:54.886Z,67.3
2018-06-11T12:41:44.954Z,67.3
2018-06-11T12:42:34.471Z,67.4
2018-06-11T12:43:25.096Z,67.4
2018-06-11T12:44:14.596Z,67.4
2018-06-11T12:45:04.947Z,67.4
2018-06-11T12:45:54.715Z,67.4
2018-06-11T12:46:45.372Z,67.4
2018-06-11T12:47:35.645Z,67.4
2018-06-11T12:48:25.187Z,67.4
2018-06-11T12:49:15.593Z,67.4
2018-06-11T12:50:05.329Z,67.4
2018-06-11T12:50:55.662Z,67.4
2018-06-11T12:51:45.445Z,67.4
2018-06-11T12:52:35.510Z,67.4
2018-06-11T12:53:25.873Z,67.4
2018-06-11T12:54:15.967Z,67.4
2018-06-11T12:55:05.708Z,67.4
2018-06-11T12:55:56.043Z,67.4
2018-06-11T12:56:46.124Z,67.4
2018-06-11T12:57:36.188Z,67.4
2018-06-11T12:58:25.962Z,67.4
2018-06-11T12:59:16.329Z,67.4
2018-06-11T13:00:06.392Z,67.4
2018-06-11T13:00:56.171Z,67.4
2018-06-11T13:01:46.528Z,67.4
2018-06-11T13:02:36.586Z,67.4
2018-06-11T13:03:26.633Z,67.4
2018-06-11T13:04:16.449Z,67.4
2018-06-11T13:05:06.827Z,67.4
2018-06-11T13:05:56.837Z,67.4
2018-06-11T13:06:46.901Z,67.4
2018-06-11T13:07:36.964Z,67.4
2018-06-11T13:08:27.048Z,67.4
2018-06-11T13:09:17.102Z,67.4
2018-06-11T13:10:07.202Z,67.4
2018-06-11T13:10:57.276Z,67.4
2018-06-11T13:11:47.330Z,67.4
2018-06-11T13:12:37.381Z,67.3
2018-06-11T13:13:27.422Z,67.3
2018-06-11T13:14:17.505Z,67.3
2018-06-11T13:15:07.323Z,67.3
2018-06-11T13:15:57.349Z,67.3
2018-06-11T13:16:47.692Z,67.3
2018-06-11T13:17:37.472Z,67.3
2018-06-11T13:18:27.822Z,67.3
2018-06-11T13:19:17.594Z,67.3
2018-06-11T13:20:07.952Z,67.3
2018-06-11T13:20:58.014Z,67.3
2018-06-11T13:21:48.071Z,67.3
2018-06-11T13:22:38.136Z,67.2
2018-06-11T13:23:28.224Z,67.2
2018-06-11T13:24:18.288Z,67.2
2018-06-11T13:25:08.056Z,67.2
2018-06-11T13:25:58.434Z,67.1
2018-06-11T13:26:47.901Z,67.1
2018-06-11T13:27:38.260Z,67.1
2018-06-11T13:28:28.595Z,67
2018-06-11T13:29:18.657Z,66.9
2018-06-11T13:30:08.725Z,66.9
2018-06-11T13:30:58.808Z,66.8
2018-06-11T13:31:48.851Z,66.8
2018-06-11T13:32:38.658Z,66.7
2018-06-11T13:33:28.972Z,66.6
2018-06-11T13:34:18.791Z,66.5
2018-06-11T13:35:09.130Z,66.4
2018-06-11T13:35:59.203Z,66.4
2018-06-11T13:36:48.407Z,66.3
2018-06-11T13:37:39.317Z,66.2
2018-06-11T13:38:29.398Z,66.1
2018-06-11T13:39:19.192Z,66.1
2018-06-11T13:40:09.528Z,66
2018-06-11T13:40:59.299Z,65.9
2018-06-11T13:41:49.650Z,65.8
2018-06-11T13:42:39.420Z,65.7
2018-06-11T13:43:29.768Z,65.6
2018-06-11T13:44:19.557Z,65.6
2018-06-11T13:45:09.629Z,65.4
2018-06-11T13:45:59.968Z,65.4
2018-06-11T13:46:50.040Z,65.3
2018-06-11T13:47:40.102Z,65.2
2018-06-11T13:48:30.159Z,65.1
2018-06-11T13:49:19.953Z,65
2018-06-11T13:50:10.406Z,64.9
2018-06-11T13:51:00.367Z,64.8
2018-06-11T13:51:50.409Z,64.8
2018-06-11T13:52:40.489Z,64.6
2018-06-11T13:53:30.550Z,64.5
2018-06-11T13:54:20.609Z,64.4
2018-06-11T13:55:10.724Z,64.3
2018-06-11T13:56:00.731Z,64.2
2018-06-11T13:56:50.814Z,64.1
2018-06-11T13:57:40.868Z,64
2018-06-11T13:58:30.935Z,63.9
2018-06-11T13:59:21.001Z,63.8
2018-06-11T14:00:11.085Z,63.4
2018-06-11T14:01:00.861Z,62.7
2018-06-11T14:01:51.213Z,62.3
2018-06-11T14:02:41.253Z,61.9
2018-06-11T14:03:31.347Z,61.6
2018-06-11T14:04:21.398Z,61.3
2018-06-11T14:05:11.480Z,60.9
2018-06-11T14:06:01.523Z,60.5
2018-06-11T14:06:51.586Z,60.1
2018-06-11T14:07:41.661Z,59.8
2018-06-11T14:08:31.715Z,59.4
2018-06-11T14:09:21.799Z,59.1
2018-06-11T14:10:11.873Z,58.7
2018-06-11T14:11:01.639Z,58.4
2018-06-11T14:11:51.433Z,58.1
2018-06-11T14:13:31.833Z,57.4
2018-06-11T14:14:22.171Z,57.1
2018-06-11T14:15:11.971Z,56.8
2018-06-11T14:16:02.328Z,56.5
2018-06-11T14:16:52.361Z,56.2
2018-06-11T14:17:42.152Z,55.9
2018-06-11T14:18:32.248Z,55.6
2018-06-11T14:19:22.061Z,55.4
2018-06-11T14:20:12.635Z,55.2
2018-06-11T14:21:02.416Z,55
2018-06-11T14:21:52.752Z,54.8
2018-06-11T14:22:42.813Z,54.6
2018-06-11T14:23:32.888Z,54.4
2018-06-11T14:24:22.957Z,54.3
2018-06-11T14:25:13.041Z,54.1
2018-06-11T14:26:03.085Z,54.1
2018-06-11T14:26:53.157Z,53.9
2018-06-11T14:27:43.222Z,53.8
2018-06-11T14:28:33.469Z,53.8
2018-06-11T14:29:23.366Z,53.7
2018-06-11T14:30:13.126Z,53.6
2018-06-11T14:31:03.207Z,53.6
2018-06-11T14:31:53.563Z,53.6
2018-06-11T14:32:43.046Z,53.5
2018-06-11T14:33:33.706Z,53.5
2018-06-11T14:34:23.777Z,53.4
2018-06-11T14:35:13.537Z,53.4
2018-06-11T14:36:03.885Z,53.4
2018-06-11T14:36:53.649Z,53.4
2018-06-11T14:37:43.997Z,53.4
2018-06-11T14:38:34.073Z,53.4
2018-06-11T14:39:23.843Z,53.4
2018-06-11T14:40:14.184Z,53.4
2018-06-11T14:41:04.474Z,53.4
2018-06-11T14:41:54.343Z,53.4
2018-06-11T14:42:44.390Z,53.4
2018-06-11T14:43:34.460Z,53.4
2018-06-11T14:44:24.595Z,53.4
2018-06-11T14:45:14.580Z,53.4
2018-06-11T14:46:04.383Z,53.4
2018-06-11T14:46:54.705Z,53.4
2018-06-11T14:47:44.513Z,53.4
2018-06-11T14:48:34.850Z,53.4
2018-06-11T14:49:24.919Z,53.4
2018-06-11T14:50:15.010Z,53.4
2018-06-11T14:51:05.051Z,53.3
2018-06-11T14:51:54.551Z,53.3
2018-06-11T14:52:44.893Z,53.3
2018-06-11T14:53:34.949Z,53.3
2018-06-11T14:54:25.305Z,53.3
2018-06-11T14:55:15.359Z,53.2
2018-06-11T14:56:05.163Z,53.1
2018-06-11T14:56:55.208Z,53.1
2018-06-11T14:57:45.563Z,53
2018-06-11T14:58:35.657Z,52.9
2018-06-11T14:59:25.680Z,52.9
2018-06-11T15:00:15.765Z,52.8
2018-06-11T15:01:05.819Z,52.7
2018-06-11T15:01:55.882Z,52.6
2018-06-11T15:02:45.951Z,52.5
2018-06-11T15:03:36.008Z,52.4
2018-06-11T15:05:15.861Z,52.3
2018-06-11T15:06:05.914Z,52.1
2018-06-11T15:06:56.000Z,52.1
2018-06-11T15:08:36.395Z,51.8
2018-06-11T15:09:26.597Z,51.6
2018-06-11T15:10:16.525Z,51.5
2018-06-11T15:11:06.608Z,51.3
2018-06-11T15:11:56.657Z,51.1
2018-06-11T15:12:46.729Z,51
2018-06-11T15:13:36.782Z,50.8
2018-06-11T15:14:26.907Z,50.6
2018-06-11T15:15:16.917Z,50.4
2018-06-11T15:16:06.992Z,50.2
2018-06-11T15:16:57.054Z,50
2018-06-11T15:17:47.118Z,49.8
2018-06-11T15:18:36.914Z,49.6
2018-06-11T15:19:27.258Z,49.4
2018-06-11T15:20:17.314Z,49.2
2018-06-11T15:21:07.369Z,49
2018-06-11T15:21:57.441Z,48.8
2018-06-11T15:22:47.510Z,48.6
2018-06-11T15:23:37.865Z,48.4
2018-06-11T15:24:27.650Z,48.1
2018-06-11T15:25:17.713Z,47.9
2018-06-11T15:26:07.792Z,47.8
2018-06-11T15:26:57.554Z,47.6
2018-06-11T15:27:47.906Z,47.4
2018-06-11T15:28:37.685Z,47.1
2018-06-11T15:29:28.264Z,46.9
2018-06-11T15:30:17.828Z,46.8
2018-06-11T15:31:08.171Z,46.6
2018-06-11T15:31:58.218Z,46.4
2018-06-11T15:32:48.299Z,46.2
2018-06-11T15:33:38.349Z,46
2018-06-11T15:34:28.439Z,45.8
2018-06-11T15:35:18.487Z,45.6
2018-06-11T15:36:08.537Z,45.4
2018-06-11T15:36:58.054Z,45.2
2018-06-11T15:37:48.691Z,45
2018-06-11T15:38:38.776Z,44.8
2018-06-11T15:39:28.825Z,44.7
2018-06-11T15:40:18.880Z,44.5
2018-06-11T15:41:08.671Z,44.3
2018-06-11T15:41:58.743Z,44.1
2018-06-11T15:42:49.073Z,44
2018-06-11T15:43:39.136Z,43.8
2018-06-11T15:44:28.940Z,43.6
2018-06-11T15:45:19.298Z,43.5
2018-06-11T15:46:09.048Z,43.4
2018-06-11T15:46:59.130Z,43.2
2018-06-11T15:47:49.465Z,43
2018-06-11T15:48:39.548Z,42.9
2018-06-11T15:49:29.602Z,42.7
2018-06-11T15:50:19.679Z,42.6
2018-06-11T15:51:09.458Z,42.4
2018-06-11T15:51:59.788Z,42.3
2018-06-11T15:52:49.874Z,42.1
2018-06-11T15:53:39.914Z,42
2018-06-11T15:54:29.997Z,41.8
2018-06-11T15:55:20.058Z,41.7
2018-06-11T15:56:10.112Z,41.6
2018-06-11T15:57:00.179Z,41.4
2018-06-11T15:57:50.280Z,41.3
2018-06-11T15:58:40.316Z,41.2
2018-06-11T15:59:30.381Z,41
2018-06-11T16:00:20.445Z,40.9
2018-06-11T16:01:10.517Z,40.8
2018-06-11T16:02:00.569Z,40.7
2018-06-11T16:02:50.631Z,40.6
2018-06-11T16:03:40.699Z,40.4
2018-06-11T16:04:30.770Z,40.3
2018-06-11T16:05:21.119Z,40.2
2018-06-11T16:06:10.904Z,40.1
2018-06-11T16:07:00.970Z,40
2018-06-11T16:07:51.027Z,39.9
2018-06-11T16:08:41.104Z,39.8
2018-06-11T16:09:30.889Z,39.7
2018-06-11T16:10:20.654Z,39.6
2018-06-11T16:11:11.281Z,39.5
2018-06-11T16:12:01.176Z,39.4
2018-06-11T16:12:51.409Z,39.3
2018-06-11T16:13:41.487Z,39.2
2018-06-11T16:14:31.110Z,39.1
2018-06-11T16:15:21.598Z,39.1
2018-06-11T16:16:11.676Z,38.9
2018-06-11T16:17:01.745Z,38.9
2018-06-11T16:17:51.525Z,38.8
2018-06-11T16:18:41.875Z,38.7
2018-06-11T16:19:31.930Z,38.6
2018-06-11T16:20:22.020Z,38.6
2018-06-11T16:21:12.067Z,38.5
2018-06-11T16:22:02.151Z,38.4
2018-06-11T16:22:52.196Z,38.3
2018-06-11T16:23:42.268Z,38.3
2018-06-11T16:24:32.405Z,38.1
2018-06-11T16:25:22.388Z,38.1
2018-06-11T16:26:12.187Z,38
2018-06-11T16:27:02.523Z,37.9
2018-06-11T16:27:52.644Z,37.8
2018-06-11T16:28:42.651Z,37.8
2018-06-11T16:29:32.712Z,37.7
2018-06-11T16:30:22.514Z,37.6
2018-06-11T16:31:12.577Z,37.6
2018-06-11T16:32:02.947Z,37.5
2018-06-11T16:32:52.988Z,37.4
2018-06-11T16:33:43.064Z,37.3
2018-06-11T16:34:33.176Z,37.3
2018-06-11T16:35:23.183Z,37.2
2018-06-11T16:36:13.264Z,37.1
2018-06-11T16:37:03.528Z,37.1
2018-06-11T16:37:53.390Z,36.9
2018-06-11T16:38:43.454Z,36.9
2018-06-11T16:39:33.518Z,36.8
2018-06-11T16:40:23.288Z,36.7
2018-06-11T16:41:13.641Z,36.6
2018-06-11T16:42:03.704Z,36.6
2018-06-11T16:42:53.940Z,36.5
2018-06-11T16:43:43.547Z,36.4
2018-06-11T16:44:33.885Z,36.4
2018-06-11T16:45:23.672Z,36.3
2018-06-11T16:46:14.025Z,36.2
2018-06-11T16:47:03.622Z,36.1
2018-06-11T16:47:54.167Z,36
2018-06-11T16:48:44.043Z,35.9
2018-06-11T16:49:34.299Z,35.9
2018-06-11T16:50:24.362Z,35.8
2018-06-11T16:51:14.129Z,35.7
2018-06-11T16:52:04.207Z,35.6
2018-06-11T16:52:54.260Z,35.5
2018-06-11T16:53:44.605Z,35.4
2018-06-11T16:54:34.661Z,35.3
2018-06-11T16:55:24.472Z,35.3
2018-06-11T16:56:14.255Z,35.2
2018-06-11T16:57:04.862Z,35.1
2018-06-11T16:57:54.998Z,35
2018-06-11T16:58:44.721Z,34.9
2018-06-11T16:59:35.057Z,34.8
2018-06-11T17:00:25.119Z,34.8
2018-06-11T17:01:14.919Z,34.6
2018-06-11T17:02:04.689Z,34.6
2018-06-11T17:02:55.351Z,34.5
2018-06-11T17:03:45.420Z,34.4
2018-06-11T17:04:35.184Z,34.3
2018-06-11T17:05:25.521Z,34.3
2018-06-11T17:06:15.094Z,34.1
2018-06-11T17:07:05.373Z,34.1
2018-06-11T17:07:55.736Z,34
2018-06-11T17:08:45.505Z,33.9
2018-06-11T17:09:35.865Z,33.8
2018-06-11T17:10:25.150Z,33.8
2018-06-11T17:11:15.997Z,33.6
2018-06-11T17:12:05.768Z,33.6
2018-06-11T17:12:55.243Z,33.4
2018-06-11T17:13:46.153Z,33.4
2018-06-11T17:14:35.669Z,33.3
2018-06-11T17:15:26.008Z,33.2
2018-06-11T17:16:16.085Z,33.1
2018-06-11T17:17:06.162Z,33.1
2018-06-11T17:17:56.476Z,32.9
2018-06-11T17:18:46.552Z,32.9
2018-06-11T17:19:36.629Z,32.8
2018-06-11T17:20:26.698Z,32.8
2018-06-11T17:21:16.744Z,32.7
2018-06-11T17:22:06.833Z,32.6
2018-06-11T17:22:56.878Z,32.5
2018-06-11T17:23:46.950Z,32.4
2018-06-11T17:24:37.014Z,32.4
2018-06-11T17:25:27.104Z,32.3
2018-06-11T17:26:17.136Z,32.3
2018-06-11T17:27:07.196Z,32.1
2018-06-11T17:27:57.261Z,32.1
2018-06-11T17:28:47.324Z,32
2018-06-11T17:29:37.388Z,31.9
2018-06-11T17:30:27.448Z,31.8
2018-06-11T17:31:17.249Z,31.8
2018-06-11T17:32:07.591Z,31.8
2018-06-11T17:32:57.665Z,31.6
2018-06-11T17:33:47.167Z,31.6
2018-06-11T17:34:37.938Z,31.5
2018-06-11T17:35:27.837Z,31.4
2018-06-11T17:36:17.914Z,31.4
2018-06-11T17:37:07.989Z,31.3
2018-06-11T17:37:58.064Z,31.3
2018-06-11T17:38:48.108Z,31.2
2018-06-11T17:39:37.901Z,31.1
2018-06-11T17:40:27.969Z,31.1
2018-06-11T17:41:18.021Z,30.9
2018-06-11T17:42:08.360Z,30.9
2018-06-11T17:42:58.149Z,30.8
2018-06-11T17:43:48.505Z,30.8
2018-06-11T17:44:38.871Z,30.7
2018-06-11T17:45:28.623Z,30.6
2018-06-11T17:46:18.684Z,30.5
2018-06-11T17:47:08.745Z,30.4
2018-06-11T17:47:58.272Z,30.4
2018-06-11T17:48:48.877Z,30.3
2018-06-11T17:49:38.939Z,30.3
2018-06-11T17:50:29.013Z,30.1
2018-06-11T17:51:19.397Z,30.1
2018-06-11T17:52:09.181Z,30
2018-06-11T17:52:58.946Z,29.8
2018-06-11T17:53:48.990Z,29.8
2018-06-11T17:54:39.640Z,29.6
2018-06-11T17:55:29.115Z,29.6
2018-06-11T17:56:19.462Z,29.5
2018-06-11T17:57:09.590Z,29.4
2018-06-11T17:57:59.599Z,29.3
2018-06-11T17:58:49.451Z,29.2
2018-06-11T17:59:39.737Z,29.1
2018-06-11T18:00:29.714Z,29
2018-06-11T18:01:19.859Z,28.9
2018-06-11T18:02:09.933Z,28.8
2018-06-11T18:03:00.002Z,28.8
2018-06-11T18:03:49.765Z,28.7
2018-06-11T18:04:40.265Z,28.6
2018-06-11T18:05:30.618Z,28.5
2018-06-11T18:06:20.253Z,28.4
2018-06-11T18:07:10.305Z,28.4
2018-06-11T18:08:00.366Z,28.3
2018-06-11T18:08:50.442Z,28.3
2018-06-11T18:09:40.512Z,28.2
2018-06-11T18:10:30.580Z,28.1
2018-06-11T18:11:20.629Z,28.1
2018-06-11T18:12:10.679Z,28
2018-06-11T18:13:00.490Z,27.9
2018-06-11T18:13:50.816Z,27.9
2018-06-11T18:15:30.954Z,27.8
2018-06-11T18:16:21.034Z,27.7
2018-06-11T18:17:11.097Z,27.6
2018-06-11T18:18:00.871Z,27.6
2018-06-11T18:18:51.209Z,27.5
2018-06-11T18:19:41.289Z,27.4
2018-06-11T18:20:31.113Z,27.4
2018-06-11T18:21:21.425Z,27.3
2018-06-11T18:22:11.468Z,27.3
2018-06-11T18:23:01.529Z,27.2
2018-06-11T18:23:51.647Z,27.1
2018-06-11T18:24:41.671Z,27.1
2018-06-11T18:25:31.452Z,27.1
2018-06-11T18:26:22.071Z,26.9
2018-06-11T18:27:11.864Z,26.9
2018-06-11T18:28:01.654Z,26.8
2018-06-11T18:28:51.989Z,26.8
2018-06-11T18:29:41.773Z,26.8
2018-06-11T18:30:32.116Z,26.7
2018-06-11T18:31:22.167Z,26.6
2018-06-11T18:32:12.300Z,26.6
2018-06-11T18:33:02.041Z,26.5
2018-06-11T18:33:52.394Z,26.4
2018-06-11T18:34:42.157Z,26.4
2018-06-11T18:35:32.712Z,26.4
2018-06-11T18:36:22.587Z,26.3
2018-06-11T18:37:11.798Z,26.3
2018-06-11T18:38:02.720Z,26.2
2018-06-11T18:38:52.502Z,26.1
2018-06-11T18:39:42.823Z,26.1
2018-06-11T18:40:32.910Z,26.1
2018-06-11T18:41:22.947Z,26
2018-06-11T18:42:13.025Z,25.9